sensor_id;sensor_type;location;lat;lon;timestamp;P1;durP1;ratioP1;P2;durP2;ratioP2
56173;SDS011;42058;52.308;20.924;2022-10-16T00:01:25;31.37;;;14.90;;
56173;SDS011;42058;52.308;20.924;2022-10-16T00:03:55;27.63;;;14.33;;
56173;SDS011;42058;52.308;20.924;2022-10-16T00:06:23;27.07;;;13.30;;
56173;SDS011;42058;52.308;20.924;2022-10-16T00:08:50;24.20;;;12.17;;
56173;SDS011;42058;52.308;20.924;2022-10-16T00:11:18;22.70;;;11.17;;
56173;SDS011;42058;52.308;20.924;2022-10-16T00:13:49;19.23;;;11.73;;
56173;SDS011;42058;52.308;20.924;2022-10-16T00:16:18;15.23;;;9.93;;
56173;SDS011;42058;52.308;20.924;2022-10-16T00:18:45;25.27;;;10.30;;
56173;SDS011;42058;52.308;20.924;2022-10-16T00:21:14;20.27;;;10.30;;
56173;SDS011;42058;52.308;20.924;2022-10-16T00:23:46;26.77;;;10.93;;
56173;SDS011;42058;52.308;20.924;2022-10-16T00:26:18;28.23;;;12.78;;
56173;SDS011;42058;52.308;20.924;2022-10-16T00:28:46;23.80;;;11.87;;
56173;SDS011;42058;52.308;20.924;2022-10-16T00:31:14;21.97;;;11.13;;
56173;SDS011;42058;52.308;20.924;2022-10-16T00:33:41;26.10;;;11.63;;
56173;SDS011;42058;52.308;20.924;2022-10-16T00:36:08;30.90;;;11.03;;
56173;SDS011;42058;52.308;20.924;2022-10-16T00:38:37;27.70;;;11.53;;
56173;SDS011;42058;52.308;20.924;2022-10-16T00:41:04;24.80;;;12.67;;
56173;SDS011;42058;52.308;20.924;2022-10-16T00:43:49;27.93;;;12.77;;
56173;SDS011;42058;52.308;20.924;2022-10-16T00:46:22;21.83;;;12.00;;
56173;SDS011;42058;52.308;20.924;2022-10-16T00:51:42;19.43;;;10.47;;
56173;SDS011;42058;52.308;20.924;2022-10-16T00:54:13;18.60;;;9.93;;
56173;SDS011;42058;52.308;20.924;2022-10-16T00:56:49;14.20;;;8.67;;
56173;SDS011;42058;52.308;20.924;2022-10-16T00:59:18;17.90;;;8.73;;
56173;SDS011;42058;52.308;20.924;2022-10-16T01:01:54;14.77;;;9.60;;
56173;SDS011;42058;52.308;20.924;2022-10-16T01:04:22;18.80;;;10.77;;
56173;SDS011;42058;52.308;20.924;2022-10-16T01:09:40;23.97;;;10.17;;
56173;SDS011;42058;52.308;20.924;2022-10-16T01:12:16;19.23;;;9.57;;
56173;SDS011;42058;52.308;20.924;2022-10-16T01:15:08;15.95;;;9.65;;
56173;SDS011;42058;52.308;20.924;2022-10-16T01:17:43;21.27;;;10.50;;
56173;SDS011;42058;52.308;20.924;2022-10-16T01:20:35;15.60;;;9.83;;
56173;SDS011;42058;52.308;20.924;2022-10-16T01:28:34;17.67;;;10.67;;
56173;SDS011;42058;52.308;20.924;2022-10-16T01:31:05;16.57;;;9.97;;
56173;SDS011;42058;52.308;20.924;2022-10-16T01:33:38;17.63;;;10.33;;
56173;SDS011;42058;52.308;20.924;2022-10-16T01:36:16;16.50;;;9.47;;
56173;SDS011;42058;52.308;20.924;2022-10-16T01:38:47;17.37;;;9.30;;
56173;SDS011;42058;52.308;20.924;2022-10-16T01:41:19;15.60;;;9.43;;
56173;SDS011;42058;52.308;20.924;2022-10-16T01:46:22;16.97;;;10.25;;
56173;SDS011;42058;52.308;20.924;2022-10-16T01:48:50;19.53;;;11.00;;
56173;SDS011;42058;52.308;20.924;2022-10-16T01:51:18;18.00;;;11.23;;
56173;SDS011;42058;52.308;20.924;2022-10-16T01:53:47;16.90;;;10.13;;
56173;SDS011;42058;52.308;20.924;2022-10-16T01:56:17;20.00;;;10.28;;
56173;SDS011;42058;52.308;20.924;2022-10-16T01:58:53;19.10;;;11.13;;
56173;SDS011;42058;52.308;20.924;2022-10-16T02:01:26;23.67;;;10.07;;
56173;SDS011;42058;52.308;20.924;2022-10-16T02:03:55;18.73;;;10.63;;
56173;SDS011;42058;52.308;20.924;2022-10-16T02:06:25;20.80;;;10.67;;
56173;SDS011;42058;52.308;20.924;2022-10-16T02:08:51;20.00;;;11.87;;
56173;SDS011;42058;52.308;20.924;2022-10-16T02:11:19;24.60;;;12.40;;
56173;SDS011;42058;52.308;20.924;2022-10-16T02:13:46;20.73;;;11.20;;
56173;SDS011;42058;52.308;20.924;2022-10-16T02:16:39;20.27;;;11.40;;
56173;SDS011;42058;52.308;20.924;2022-10-16T02:19:09;18.67;;;10.50;;
56173;SDS011;42058;52.308;20.924;2022-10-16T02:24:19;27.13;;;12.03;;
56173;SDS011;42058;52.308;20.924;2022-10-16T02:26:52;20.95;;;11.90;;
56173;SDS011;42058;52.308;20.924;2022-10-16T02:29:25;26.30;;;11.27;;
56173;SDS011;42058;52.308;20.924;2022-10-16T02:31:54;23.13;;;12.60;;
56173;SDS011;42058;52.308;20.924;2022-10-16T02:34:24;22.02;;;12.00;;
56173;SDS011;42058;52.308;20.924;2022-10-16T02:36:53;17.03;;;11.30;;
56173;SDS011;42058;52.308;20.924;2022-10-16T02:39:20;22.50;;;12.33;;
56173;SDS011;42058;52.308;20.924;2022-10-16T02:41:47;21.10;;;11.60;;
56173;SDS011;42058;52.308;20.924;2022-10-16T02:44:13;20.67;;;12.07;;
56173;SDS011;42058;52.308;20.924;2022-10-16T02:46:39;24.03;;;12.50;;
56173;SDS011;42058;52.308;20.924;2022-10-16T02:49:05;26.97;;;11.73;;
56173;SDS011;42058;52.308;20.924;2022-10-16T02:51:32;25.13;;;11.73;;
56173;SDS011;42058;52.308;20.924;2022-10-16T02:53:58;26.30;;;12.10;;
56173;SDS011;42058;52.308;20.924;2022-10-16T02:56:24;20.87;;;12.60;;
56173;SDS011;42058;52.308;20.924;2022-10-16T02:58:50;30.07;;;12.77;;
56173;SDS011;42058;52.308;20.924;2022-10-16T03:01:16;24.33;;;12.40;;
56173;SDS011;42058;52.308;20.924;2022-10-16T03:03:42;23.00;;;13.53;;
56173;SDS011;42058;52.308;20.924;2022-10-16T03:06:08;23.53;;;13.70;;
56173;SDS011;42058;52.308;20.924;2022-10-16T03:08:34;23.57;;;13.53;;
56173;SDS011;42058;52.308;20.924;2022-10-16T03:11:01;25.60;;;13.80;;
56173;SDS011;42058;52.308;20.924;2022-10-16T03:13:27;23.23;;;13.63;;
56173;SDS011;42058;52.308;20.924;2022-10-16T03:15:53;26.37;;;14.20;;
56173;SDS011;42058;52.308;20.924;2022-10-16T03:18:19;39.67;;;15.00;;
56173;SDS011;42058;52.308;20.924;2022-10-16T03:20:45;23.93;;;14.03;;
56173;SDS011;42058;52.308;20.924;2022-10-16T03:23:12;24.47;;;14.23;;
56173;SDS011;42058;52.308;20.924;2022-10-16T03:25:38;26.70;;;14.53;;
56173;SDS011;42058;52.308;20.924;2022-10-16T03:28:04;25.17;;;14.00;;
56173;SDS011;42058;52.308;20.924;2022-10-16T03:30:30;21.47;;;13.33;;
56173;SDS011;42058;52.308;20.924;2022-10-16T03:32:57;24.80;;;12.87;;
56173;SDS011;42058;52.308;20.924;2022-10-16T03:35:23;24.67;;;12.37;;
56173;SDS011;42058;52.308;20.924;2022-10-16T03:37:50;28.77;;;13.37;;
56173;SDS011;42058;52.308;20.924;2022-10-16T03:40:16;21.73;;;12.97;;
56173;SDS011;42058;52.308;20.924;2022-10-16T03:42:43;20.03;;;12.70;;
56173;SDS011;42058;52.308;20.924;2022-10-16T03:45:10;21.23;;;12.27;;
56173;SDS011;42058;52.308;20.924;2022-10-16T03:47:37;21.60;;;13.57;;
56173;SDS011;42058;52.308;20.924;2022-10-16T03:50:03;24.77;;;13.80;;
56173;SDS011;42058;52.308;20.924;2022-10-16T03:52:31;22.63;;;12.93;;
56173;SDS011;42058;52.308;20.924;2022-10-16T03:54:58;23.90;;;12.80;;
56173;SDS011;42058;52.308;20.924;2022-10-16T03:57:24;24.17;;;12.10;;
56173;SDS011;42058;52.308;20.924;2022-10-16T03:59:50;27.73;;;13.83;;
56173;SDS011;42058;52.308;20.924;2022-10-16T04:02:16;27.70;;;14.00;;
56173;SDS011;42058;52.308;20.924;2022-10-16T04:04:42;20.10;;;12.90;;
56173;SDS011;42058;52.308;20.924;2022-10-16T04:07:08;33.37;;;13.23;;
56173;SDS011;42058;52.308;20.924;2022-10-16T04:09:34;27.70;;;13.57;;
56173;SDS011;42058;52.308;20.924;2022-10-16T04:12:00;30.37;;;13.93;;
56173;SDS011;42058;52.308;20.924;2022-10-16T04:14:27;28.93;;;13.37;;
56173;SDS011;42058;52.308;20.924;2022-10-16T04:16:53;20.60;;;12.63;;
56173;SDS011;42058;52.308;20.924;2022-10-16T04:19:19;23.93;;;13.33;;
56173;SDS011;42058;52.308;20.924;2022-10-16T04:21:45;19.87;;;12.70;;
56173;SDS011;42058;52.308;20.924;2022-10-16T04:24:11;21.30;;;13.37;;
56173;SDS011;42058;52.308;20.924;2022-10-16T04:26:37;38.67;;;13.10;;
56173;SDS011;42058;52.308;20.924;2022-10-16T04:29:03;23.57;;;13.27;;
56173;SDS011;42058;52.308;20.924;2022-10-16T04:31:30;27.50;;;13.43;;
56173;SDS011;42058;52.308;20.924;2022-10-16T04:33:56;23.60;;;12.73;;
56173;SDS011;42058;52.308;20.924;2022-10-16T04:36:22;31.53;;;13.27;;
56173;SDS011;42058;52.308;20.924;2022-10-16T04:38:48;23.53;;;13.43;;
56173;SDS011;42058;52.308;20.924;2022-10-16T04:41:14;27.87;;;13.77;;
56173;SDS011;42058;52.308;20.924;2022-10-16T04:43:40;34.60;;;16.63;;
56173;SDS011;42058;52.308;20.924;2022-10-16T04:46:07;33.50;;;16.50;;
56173;SDS011;42058;52.308;20.924;2022-10-16T04:48:33;37.07;;;16.77;;
56173;SDS011;42058;52.308;20.924;2022-10-16T04:50:59;33.10;;;16.70;;
56173;SDS011;42058;52.308;20.924;2022-10-16T04:53:25;44.53;;;17.27;;
56173;SDS011;42058;52.308;20.924;2022-10-16T04:55:51;44.63;;;17.67;;
56173;SDS011;42058;52.308;20.924;2022-10-16T04:58:17;36.93;;;17.03;;
56173;SDS011;42058;52.308;20.924;2022-10-16T05:00:44;36.27;;;17.37;;
56173;SDS011;42058;52.308;20.924;2022-10-16T05:03:12;33.57;;;17.03;;
56173;SDS011;42058;52.308;20.924;2022-10-16T05:05:42;35.97;;;17.00;;
56173;SDS011;42058;52.308;20.924;2022-10-16T05:08:11;40.08;;;16.23;;
56173;SDS011;42058;52.308;20.924;2022-10-16T05:10:40;42.47;;;17.67;;
56173;SDS011;42058;52.308;20.924;2022-10-16T05:13:08;31.27;;;16.63;;
56173;SDS011;42058;52.308;20.924;2022-10-16T05:15:35;38.73;;;17.10;;
56173;SDS011;42058;52.308;20.924;2022-10-16T05:18:01;30.97;;;15.93;;
56173;SDS011;42058;52.308;20.924;2022-10-16T05:20:27;30.53;;;17.27;;
56173;SDS011;42058;52.308;20.924;2022-10-16T05:22:53;48.43;;;19.47;;
56173;SDS011;42058;52.308;20.924;2022-10-16T05:25:19;47.37;;;23.20;;
56173;SDS011;42058;52.308;20.924;2022-10-16T05:27:48;55.53;;;27.63;;
56173;SDS011;42058;52.308;20.924;2022-10-16T05:30:15;67.53;;;32.10;;
56173;SDS011;42058;52.308;20.924;2022-10-16T05:32:51;63.17;;;30.90;;
56173;SDS011;42058;52.308;20.924;2022-10-16T05:35:16;52.70;;;26.55;;
56173;SDS011;42058;52.308;20.924;2022-10-16T05:37:44;57.43;;;25.00;;
56173;SDS011;42058;52.308;20.924;2022-10-16T05:40:11;37.07;;;19.97;;
56173;SDS011;42058;52.308;20.924;2022-10-16T05:42:38;33.50;;;15.33;;
56173;SDS011;42058;52.308;20.924;2022-10-16T05:45:06;23.67;;;14.50;;
56173;SDS011;42058;52.308;20.924;2022-10-16T05:47:36;27.13;;;13.70;;
56173;SDS011;42058;52.308;20.924;2022-10-16T05:50:02;26.67;;;13.93;;
56173;SDS011;42058;52.308;20.924;2022-10-16T05:52:29;28.67;;;14.27;;
56173;SDS011;42058;52.308;20.924;2022-10-16T05:54:55;25.53;;;13.80;;
56173;SDS011;42058;52.308;20.924;2022-10-16T05:57:21;27.20;;;14.77;;
56173;SDS011;42058;52.308;20.924;2022-10-16T05:59:47;25.13;;;14.33;;
56173;SDS011;42058;52.308;20.924;2022-10-16T06:02:14;29.43;;;15.47;;
56173;SDS011;42058;52.308;20.924;2022-10-16T06:04:40;25.27;;;15.43;;
56173;SDS011;42058;52.308;20.924;2022-10-16T06:07:06;28.70;;;14.83;;
56173;SDS011;42058;52.308;20.924;2022-10-16T06:09:33;30.50;;;16.47;;
56173;SDS011;42058;52.308;20.924;2022-10-16T06:11:59;28.03;;;16.00;;
56173;SDS011;42058;52.308;20.924;2022-10-16T06:14:25;29.90;;;14.83;;
56173;SDS011;42058;52.308;20.924;2022-10-16T06:16:51;25.93;;;14.83;;
56173;SDS011;42058;52.308;20.924;2022-10-16T06:19:17;28.03;;;15.93;;
56173;SDS011;42058;52.308;20.924;2022-10-16T06:21:44;25.67;;;14.83;;
56173;SDS011;42058;52.308;20.924;2022-10-16T06:24:10;29.43;;;15.20;;
56173;SDS011;42058;52.308;20.924;2022-10-16T06:26:36;32.87;;;15.67;;
56173;SDS011;42058;52.308;20.924;2022-10-16T06:29:03;29.90;;;15.63;;
56173;SDS011;42058;52.308;20.924;2022-10-16T06:31:30;26.77;;;14.93;;
56173;SDS011;42058;52.308;20.924;2022-10-16T06:33:58;39.20;;;18.53;;
56173;SDS011;42058;52.308;20.924;2022-10-16T06:36:25;49.03;;;20.97;;
56173;SDS011;42058;52.308;20.924;2022-10-16T06:38:52;49.57;;;21.00;;
56173;SDS011;42058;52.308;20.924;2022-10-16T06:41:19;42.60;;;20.73;;
56173;SDS011;42058;52.308;20.924;2022-10-16T06:43:47;40.23;;;18.20;;
56173;SDS011;42058;52.308;20.924;2022-10-16T06:46:15;42.37;;;18.87;;
56173;SDS011;42058;52.308;20.924;2022-10-16T06:48:45;32.87;;;16.43;;
56173;SDS011;42058;52.308;20.924;2022-10-16T06:51:13;27.93;;;16.43;;
56173;SDS011;42058;52.308;20.924;2022-10-16T06:53:49;28.17;;;16.50;;
56173;SDS011;42058;52.308;20.924;2022-10-16T06:56:20;25.53;;;14.57;;
56173;SDS011;42058;52.308;20.924;2022-10-16T06:58:49;28.97;;;15.43;;
56173;SDS011;42058;52.308;20.924;2022-10-16T07:01:17;21.77;;;14.27;;
56173;SDS011;42058;52.308;20.924;2022-10-16T07:03:46;27.47;;;14.03;;
56173;SDS011;42058;52.308;20.924;2022-10-16T07:06:13;23.90;;;13.83;;
56173;SDS011;42058;52.308;20.924;2022-10-16T07:08:43;29.80;;;13.77;;
56173;SDS011;42058;52.308;20.924;2022-10-16T07:11:13;30.73;;;13.87;;
56173;SDS011;42058;52.308;20.924;2022-10-16T07:13:44;26.47;;;13.53;;
56173;SDS011;42058;52.308;20.924;2022-10-16T07:16:12;24.90;;;13.70;;
56173;SDS011;42058;52.308;20.924;2022-10-16T07:18:41;29.30;;;14.60;;
56173;SDS011;42058;52.308;20.924;2022-10-16T07:21:16;30.33;;;14.87;;
56173;SDS011;42058;52.308;20.924;2022-10-16T07:23:42;35.23;;;17.37;;
56173;SDS011;42058;52.308;20.924;2022-10-16T07:26:09;37.20;;;18.47;;
56173;SDS011;42058;52.308;20.924;2022-10-16T07:28:36;25.13;;;14.30;;
56173;SDS011;42058;52.308;20.924;2022-10-16T07:31:05;25.70;;;13.20;;
56173;SDS011;42058;52.308;20.924;2022-10-16T07:33:36;22.42;;;12.43;;
56173;SDS011;42058;52.308;20.924;2022-10-16T07:36:04;18.57;;;12.20;;
56173;SDS011;42058;52.308;20.924;2022-10-16T07:38:31;22.93;;;12.07;;
56173;SDS011;42058;52.308;20.924;2022-10-16T07:40:58;27.60;;;12.27;;
56173;SDS011;42058;52.308;20.924;2022-10-16T07:43:31;17.77;;;11.73;;
56173;SDS011;42058;52.308;20.924;2022-10-16T07:45:58;18.00;;;11.33;;
56173;SDS011;42058;52.308;20.924;2022-10-16T07:48:29;16.73;;;10.83;;
56173;SDS011;42058;52.308;20.924;2022-10-16T07:50:58;19.70;;;11.97;;
56173;SDS011;42058;52.308;20.924;2022-10-16T07:53:27;20.17;;;11.83;;
56173;SDS011;42058;52.308;20.924;2022-10-16T07:56:00;17.50;;;11.00;;
56173;SDS011;42058;52.308;20.924;2022-10-16T07:58:29;22.23;;;11.80;;
56173;SDS011;42058;52.308;20.924;2022-10-16T08:00:57;18.47;;;11.90;;
56173;SDS011;42058;52.308;20.924;2022-10-16T08:03:24;21.73;;;11.90;;
56173;SDS011;42058;52.308;20.924;2022-10-16T08:05:50;19.37;;;11.37;;
56173;SDS011;42058;52.308;20.924;2022-10-16T08:08:17;18.60;;;11.27;;
56173;SDS011;42058;52.308;20.924;2022-10-16T08:10:44;19.60;;;11.77;;
56173;SDS011;42058;52.308;20.924;2022-10-16T08:13:11;33.13;;;15.10;;
56173;SDS011;42058;52.308;20.924;2022-10-16T08:15:38;36.07;;;17.20;;
56173;SDS011;42058;52.308;20.924;2022-10-16T08:18:04;41.57;;;17.10;;
56173;SDS011;42058;52.308;20.924;2022-10-16T08:20:31;34.87;;;15.80;;
56173;SDS011;42058;52.308;20.924;2022-10-16T08:22:59;22.60;;;13.13;;
56173;SDS011;42058;52.308;20.924;2022-10-16T08:25:26;29.03;;;13.43;;
56173;SDS011;42058;52.308;20.924;2022-10-16T08:27:53;29.63;;;13.97;;
56173;SDS011;42058;52.308;20.924;2022-10-16T08:30:20;25.63;;;12.43;;
56173;SDS011;42058;52.308;20.924;2022-10-16T08:32:48;22.53;;;12.50;;
56173;SDS011;42058;52.308;20.924;2022-10-16T08:35:15;24.33;;;12.60;;
56173;SDS011;42058;52.308;20.924;2022-10-16T08:37:42;19.27;;;11.37;;
56173;SDS011;42058;52.308;20.924;2022-10-16T08:40:25;16.77;;;10.33;;
56173;SDS011;42058;52.308;20.924;2022-10-16T08:46:06;18.97;;;10.20;;
56173;SDS011;42058;52.308;20.924;2022-10-16T08:51:24;13.13;;;9.30;;
56173;SDS011;42058;52.308;20.924;2022-10-16T08:53:55;15.07;;;10.43;;
56173;SDS011;42058;52.308;20.924;2022-10-16T08:56:34;21.40;;;10.13;;
56173;SDS011;42058;52.308;20.924;2022-10-16T08:59:00;19.23;;;9.80;;
56173;SDS011;42058;52.308;20.924;2022-10-16T09:01:37;19.47;;;11.17;;
56173;SDS011;42058;52.308;20.924;2022-10-16T09:07:01;19.80;;;10.63;;
56173;SDS011;42058;52.308;20.924;2022-10-16T09:12:20;18.63;;;9.57;;
56173;SDS011;42058;52.308;20.924;2022-10-16T09:17:59;18.67;;;9.33;;
56173;SDS011;42058;52.308;20.924;2022-10-16T09:21:13;14.30;;;9.63;;
56173;SDS011;42058;52.308;20.924;2022-10-16T09:23:46;24.30;;;10.37;;
56173;SDS011;42058;52.308;20.924;2022-10-16T09:26:13;15.27;;;9.83;;
56173;SDS011;42058;52.308;20.924;2022-10-16T09:28:41;15.00;;;9.37;;
56173;SDS011;42058;52.308;20.924;2022-10-16T09:31:11;19.17;;;10.40;;
56173;SDS011;42058;52.308;20.924;2022-10-16T09:33:45;25.10;;;10.67;;
56173;SDS011;42058;52.308;20.924;2022-10-16T09:36:18;13.40;;;8.50;;
56173;SDS011;42058;52.308;20.924;2022-10-16T09:38:46;11.53;;;8.43;;
56173;SDS011;42058;52.308;20.924;2022-10-16T09:41:19;11.17;;;8.10;;
56173;SDS011;42058;52.308;20.924;2022-10-16T09:43:57;15.10;;;8.97;;
56173;SDS011;42058;52.308;20.924;2022-10-16T09:46:29;16.57;;;9.40;;
56173;SDS011;42058;52.308;20.924;2022-10-16T09:49:00;23.73;;;10.07;;
56173;SDS011;42058;52.308;20.924;2022-10-16T09:51:36;20.70;;;9.87;;
56173;SDS011;42058;52.308;20.924;2022-10-16T09:56:42;16.57;;;9.93;;
56173;SDS011;42058;52.308;20.924;2022-10-16T10:01:43;12.77;;;9.17;;
56173;SDS011;42058;52.308;20.924;2022-10-16T10:04:13;14.18;;;8.33;;
56173;SDS011;42058;52.308;20.924;2022-10-16T10:06:45;13.30;;;8.23;;
56173;SDS011;42058;52.308;20.924;2022-10-16T10:09:23;13.70;;;9.53;;
56173;SDS011;42058;52.308;20.924;2022-10-16T10:11:55;16.10;;;8.83;;
56173;SDS011;42058;52.308;20.924;2022-10-16T10:14:25;12.40;;;8.05;;
56173;SDS011;42058;52.308;20.924;2022-10-16T10:19:56;15.03;;;9.67;;
56173;SDS011;42058;52.308;20.924;2022-10-16T10:22:30;11.93;;;8.60;;
56173;SDS011;42058;52.308;20.924;2022-10-16T10:27:49;12.43;;;8.30;;
56173;SDS011;42058;52.308;20.924;2022-10-16T10:30:45;17.57;;;9.27;;
56173;SDS011;42058;52.308;20.924;2022-10-16T10:33:37;20.33;;;8.50;;
56173;SDS011;42058;52.308;20.924;2022-10-16T10:36:33;18.50;;;8.60;;
56173;SDS011;42058;52.308;20.924;2022-10-16T10:39:08;13.43;;;8.60;;
56173;SDS011;42058;52.308;20.924;2022-10-16T10:42:04;16.10;;;8.63;;
56173;SDS011;42058;52.308;20.924;2022-10-16T10:47:25;11.93;;;8.27;;
56173;SDS011;42058;52.308;20.924;2022-10-16T10:50:12;15.70;;;8.08;;
56173;SDS011;42058;52.308;20.924;2022-10-16T10:52:52;12.97;;;8.03;;
56173;SDS011;42058;52.308;20.924;2022-10-16T10:58:25;20.60;;;11.20;;
56173;SDS011;42058;52.308;20.924;2022-10-16T11:01:12;20.30;;;10.17;;
56173;SDS011;42058;52.308;20.924;2022-10-16T11:03:50;15.30;;;8.80;;
56173;SDS011;42058;52.308;20.924;2022-10-16T11:06:28;12.93;;;9.10;;
56173;SDS011;42058;52.308;20.924;2022-10-16T11:11:47;14.37;;;8.60;;
56173;SDS011;42058;52.308;20.924;2022-10-16T11:17:04;23.00;;;10.43;;
56173;SDS011;42058;52.308;20.924;2022-10-16T11:19:41;14.03;;;9.27;;
56173;SDS011;42058;52.308;20.924;2022-10-16T11:22:22;15.17;;;8.70;;
56173;SDS011;42058;52.308;20.924;2022-10-16T11:27:52;17.83;;;9.47;;
56173;SDS011;42058;52.308;20.924;2022-10-16T11:30:53;16.40;;;9.43;;
56173;SDS011;42058;52.308;20.924;2022-10-16T11:36:15;14.60;;;9.83;;
56173;SDS011;42058;52.308;20.924;2022-10-16T11:39:11;13.93;;;9.60;;
56173;SDS011;42058;52.308;20.924;2022-10-16T11:45:03;16.67;;;7.93;;
56173;SDS011;42058;52.308;20.924;2022-10-16T11:55:58;18.13;;;9.10;;
56173;SDS011;42058;52.308;20.924;2022-10-16T12:01:17;15.63;;;7.97;;
56173;SDS011;42058;52.308;20.924;2022-10-16T12:07:13;14.63;;;8.73;;
56173;SDS011;42058;52.308;20.924;2022-10-16T12:09:40;13.63;;;7.80;;
56173;SDS011;42058;52.308;20.924;2022-10-16T12:15:49;15.43;;;8.30;;
56173;SDS011;42058;52.308;20.924;2022-10-16T12:17:53;18.67;;;7.67;;
56173;SDS011;42058;52.308;20.924;2022-10-16T12:20:31;12.33;;;7.57;;
56173;SDS011;42058;52.308;20.924;2022-10-16T12:23:01;12.77;;;7.13;;
56173;SDS011;42058;52.308;20.924;2022-10-16T12:25:31;20.07;;;7.90;;
56173;SDS011;42058;52.308;20.924;2022-10-16T12:28:01;10.07;;;6.60;;
56173;SDS011;42058;52.308;20.924;2022-10-16T12:30:32;14.83;;;7.17;;
56173;SDS011;42058;52.308;20.924;2022-10-16T12:33:23;11.83;;;6.80;;
56173;SDS011;42058;52.308;20.924;2022-10-16T12:35:52;20.53;;;7.70;;
56173;SDS011;42058;52.308;20.924;2022-10-16T12:38:21;11.23;;;7.50;;
56173;SDS011;42058;52.308;20.924;2022-10-16T12:40:59;10.57;;;6.67;;
56173;SDS011;42058;52.308;20.924;2022-10-16T12:43:35;15.17;;;7.23;;
56173;SDS011;42058;52.308;20.924;2022-10-16T12:48:41;21.03;;;7.20;;
56173;SDS011;42058;52.308;20.924;2022-10-16T12:51:11;8.93;;;7.20;;
56173;SDS011;42058;52.308;20.924;2022-10-16T12:53:38;17.53;;;6.70;;
56173;SDS011;42058;52.308;20.924;2022-10-16T12:56:16;11.93;;;6.30;;
56173;SDS011;42058;52.308;20.924;2022-10-16T13:01:32;17.37;;;6.97;;
56173;SDS011;42058;52.308;20.924;2022-10-16T13:07:24;20.87;;;7.23;;
56173;SDS011;42058;52.308;20.924;2022-10-16T13:10:15;15.70;;;6.83;;
56173;SDS011;42058;52.308;20.924;2022-10-16T13:15:47;14.93;;;7.47;;
56173;SDS011;42058;52.308;20.924;2022-10-16T13:21:37;16.60;;;6.97;;
56173;SDS011;42058;52.308;20.924;2022-10-16T13:24:25;11.77;;;6.83;;
56173;SDS011;42058;52.308;20.924;2022-10-16T13:27:17;13.80;;;7.10;;
56173;SDS011;42058;52.308;20.924;2022-10-16T13:30:11;11.33;;;7.27;;
56173;SDS011;42058;52.308;20.924;2022-10-16T13:32:47;9.07;;;6.73;;
56173;SDS011;42058;52.308;20.924;2022-10-16T13:35:22;33.25;;;7.53;;
56173;SDS011;42058;52.308;20.924;2022-10-16T13:38:02;20.00;;;7.90;;
56173;SDS011;42058;52.308;20.924;2022-10-16T13:40:32;11.40;;;7.00;;
56173;SDS011;42058;52.308;20.924;2022-10-16T13:43:00;13.30;;;7.17;;
56173;SDS011;42058;52.308;20.924;2022-10-16T13:45:27;17.03;;;8.20;;
56173;SDS011;42058;52.308;20.924;2022-10-16T13:48:03;14.40;;;8.30;;
56173;SDS011;42058;52.308;20.924;2022-10-16T13:50:31;10.40;;;7.87;;
56173;SDS011;42058;52.308;20.924;2022-10-16T13:53:09;20.30;;;7.37;;
56173;SDS011;42058;52.308;20.924;2022-10-16T13:55:34;11.97;;;8.13;;
56173;SDS011;42058;52.308;20.924;2022-10-16T13:58:13;14.00;;;7.60;;
56173;SDS011;42058;52.308;20.924;2022-10-16T14:00:41;15.63;;;8.53;;
56173;SDS011;42058;52.308;20.924;2022-10-16T14:03:23;13.93;;;8.07;;
56173;SDS011;42058;52.308;20.924;2022-10-16T14:05:58;10.17;;;7.47;;
56173;SDS011;42058;52.308;20.924;2022-10-16T14:08:29;11.47;;;7.47;;
56173;SDS011;42058;52.308;20.924;2022-10-16T14:10:58;16.77;;;7.53;;
56173;SDS011;42058;52.308;20.924;2022-10-16T14:13:29;17.60;;;7.67;;
56173;SDS011;42058;52.308;20.924;2022-10-16T14:16:02;13.63;;;7.53;;
56173;SDS011;42058;52.308;20.924;2022-10-16T14:18:44;10.40;;;6.80;;
56173;SDS011;42058;52.308;20.924;2022-10-16T14:21:21;17.80;;;7.20;;
56173;SDS011;42058;52.308;20.924;2022-10-16T14:23:48;35.37;;;8.13;;
56173;SDS011;42058;52.308;20.924;2022-10-16T14:26:15;13.33;;;6.93;;
56173;SDS011;42058;52.308;20.924;2022-10-16T14:28:45;12.10;;;6.87;;
56173;SDS011;42058;52.308;20.924;2022-10-16T14:31:35;12.53;;;6.97;;
56173;SDS011;42058;52.308;20.924;2022-10-16T14:33:48;14.13;;;6.57;;
56173;SDS011;42058;52.308;20.924;2022-10-16T14:36:15;23.60;;;7.27;;
56173;SDS011;42058;52.308;20.924;2022-10-16T14:38:53;13.13;;;7.20;;
56173;SDS011;42058;52.308;20.924;2022-10-16T14:41:30;17.27;;;7.10;;
56173;SDS011;42058;52.308;20.924;2022-10-16T14:44:04;14.30;;;6.30;;
56173;SDS011;42058;52.308;20.924;2022-10-16T14:46:32;11.73;;;6.07;;
56173;SDS011;42058;52.308;20.924;2022-10-16T14:49:03;11.30;;;6.27;;
56173;SDS011;42058;52.308;20.924;2022-10-16T14:51:38;21.07;;;6.67;;
56173;SDS011;42058;52.308;20.924;2022-10-16T14:54:10;9.20;;;6.80;;
56173;SDS011;42058;52.308;20.924;2022-10-16T14:59:19;10.93;;;7.00;;
56173;SDS011;42058;52.308;20.924;2022-10-16T15:01:49;48.50;;;9.45;;
56173;SDS011;42058;52.308;20.924;2022-10-16T15:04:16;16.27;;;7.93;;
56173;SDS011;42058;52.308;20.924;2022-10-16T15:06:43;13.70;;;8.30;;
56173;SDS011;42058;52.308;20.924;2022-10-16T15:09:09;14.83;;;8.23;;
56173;SDS011;42058;52.308;20.924;2022-10-16T15:11:35;16.97;;;7.07;;
56173;SDS011;42058;52.308;20.924;2022-10-16T15:14:02;10.03;;;7.03;;
56173;SDS011;42058;52.308;20.924;2022-10-16T15:16:29;13.87;;;7.07;;
56173;SDS011;42058;52.308;20.924;2022-10-16T15:18:56;13.90;;;7.53;;
56173;SDS011;42058;52.308;20.924;2022-10-16T15:21:30;10.50;;;6.90;;
56173;SDS011;42058;52.308;20.924;2022-10-16T15:23:56;13.97;;;7.30;;
56173;SDS011;42058;52.308;20.924;2022-10-16T15:26:24;18.80;;;7.30;;
56173;SDS011;42058;52.308;20.924;2022-10-16T15:28:53;13.17;;;6.97;;
56173;SDS011;42058;52.308;20.924;2022-10-16T15:31:19;14.10;;;6.77;;
56173;SDS011;42058;52.308;20.924;2022-10-16T15:33:49;15.63;;;8.53;;
56173;SDS011;42058;52.308;20.924;2022-10-16T15:36:25;17.40;;;9.48;;
56173;SDS011;42058;52.308;20.924;2022-10-16T15:38:59;20.00;;;9.53;;
56173;SDS011;42058;52.308;20.924;2022-10-16T15:41:26;21.20;;;10.70;;
56173;SDS011;42058;52.308;20.924;2022-10-16T15:43:52;25.17;;;11.10;;
56173;SDS011;42058;52.308;20.924;2022-10-16T15:46:19;22.40;;;10.13;;
56173;SDS011;42058;52.308;20.924;2022-10-16T15:48:49;18.77;;;9.50;;
56173;SDS011;42058;52.308;20.924;2022-10-16T15:51:17;12.83;;;8.57;;
56173;SDS011;42058;52.308;20.924;2022-10-16T15:53:44;16.93;;;8.13;;
56173;SDS011;42058;52.308;20.924;2022-10-16T15:56:12;15.13;;;8.67;;
56173;SDS011;42058;52.308;20.924;2022-10-16T15:58:40;17.80;;;8.87;;
56173;SDS011;42058;52.308;20.924;2022-10-16T16:01:07;22.83;;;9.33;;
56173;SDS011;42058;52.308;20.924;2022-10-16T16:03:35;15.43;;;9.17;;
56173;SDS011;42058;52.308;20.924;2022-10-16T16:06:09;17.80;;;8.30;;
56173;SDS011;42058;52.308;20.924;2022-10-16T16:08:36;25.53;;;8.43;;
56173;SDS011;42058;52.308;20.924;2022-10-16T16:11:05;56.97;;;9.20;;